createdAt,value
2023-06-14T00:01:35.760Z,5.68
2023-06-14T00:04:02.873Z,5.87
2023-06-14T00:06:30.114Z,5.73
2023-06-14T00:08:56.923Z,5.68
2023-06-14T00:11:23.687Z,5.55
2023-06-14T00:13:50.393Z,5.71
2023-06-14T00:16:17.123Z,5.54
2023-06-14T00:18:43.807Z,5.59
2023-06-14T00:21:10.515Z,5.48
2023-06-14T00:23:37.384Z,5.53
2023-06-14T00:26:04.264Z,5.75
2023-06-14T00:28:30.952Z,5.73
2023-06-14T00:30:57.837Z,5.55
2023-06-14T00:33:24.525Z,5.40
2023-06-14T00:35:51.278Z,5.41
2023-06-14T00:38:18.004Z,5.38
2023-06-14T00:40:44.683Z,5.50
2023-06-14T00:43:11.349Z,5.56
2023-06-14T00:45:40.559Z,5.37
2023-06-14T00:48:09.324Z,5.54
2023-06-14T00:50:36.881Z,5.72
2023-06-14T00:53:03.748Z,5.58
2023-06-14T00:55:31.156Z,5.58
2023-06-14T00:57:58.203Z,5.22
2023-06-14T01:00:24.966Z,5.59
2023-06-14T01:02:51.892Z,5.66
2023-06-14T01:05:20.060Z,5.75
2023-06-14T01:08:29.232Z,5.67
2023-06-14T01:11:08.263Z,5.71
2023-06-14T01:13:41.733Z,5.61
2023-06-14T01:16:09.523Z,5.56
2023-06-14T01:18:37.270Z,5.62
2023-06-14T01:21:04.252Z,5.74
2023-06-14T01:23:31.027Z,5.85
2023-06-14T01:25:57.765Z,5.83
2023-06-14T01:28:25.929Z,5.72
2023-06-14T01:30:55.797Z,5.54
2023-06-14T01:33:24.969Z,5.59
2023-06-14T01:35:56.818Z,5.67
2023-06-14T01:38:26.719Z,5.93
2023-06-14T01:40:58.101Z,5.81
2023-06-14T01:43:26.703Z,5.71
2023-06-14T01:45:55.611Z,5.49
2023-06-14T01:48:22.972Z,5.53
2023-06-14T01:50:50.994Z,5.74
2023-06-14T01:53:19.133Z,5.80
2023-06-14T01:55:48.363Z,5.62
2023-06-14T01:58:16.857Z,5.90
2023-06-14T02:00:43.559Z,5.52
2023-06-14T02:03:10.436Z,5.65
2023-06-14T02:05:37.170Z,6.00
2023-06-14T02:08:04.027Z,5.85
2023-06-14T02:10:30.804Z,5.64
2023-06-14T02:12:57.574Z,5.99
2023-06-14T02:15:24.287Z,5.99
2023-06-14T02:17:51.084Z,6.25
2023-06-14T02:20:18.487Z,5.93
2023-06-14T02:22:46.160Z,6.16
2023-06-14T02:25:12.855Z,6.02
2023-06-14T02:27:39.918Z,5.73
2023-06-14T02:30:07.176Z,5.91
2023-06-14T02:32:34.180Z,6.20
2023-06-14T02:35:00.951Z,6.13
2023-06-14T02:37:27.653Z,5.95
2023-06-14T02:39:54.412Z,6.36
2023-06-14T02:42:21.085Z,5.97
2023-06-14T02:44:47.785Z,5.80
2023-06-14T02:47:14.492Z,5.97
2023-06-14T02:49:41.199Z,5.49
2023-06-14T02:52:07.887Z,6.23
2023-06-14T02:54:34.565Z,6.04
2023-06-14T02:57:01.404Z,5.98
2023-06-14T02:59:28.273Z,6.12
2023-06-14T03:01:54.998Z,5.82
2023-06-14T03:04:21.685Z,6.10
2023-06-14T03:06:48.404Z,6.03
2023-06-14T03:09:15.162Z,5.94
2023-06-14T03:11:41.862Z,6.08
2023-06-14T03:14:08.581Z,6.11
2023-06-14T03:16:35.510Z,6.14
2023-06-14T03:19:04.562Z,6.06
2023-06-14T03:21:31.353Z,5.92
2023-06-14T03:23:58.105Z,5.67
2023-06-14T03:26:24.817Z,6.14
2023-06-14T03:28:51.556Z,6.08
2023-06-14T03:31:18.426Z,5.94
2023-06-14T03:33:45.142Z,6.08
2023-06-14T03:36:11.854Z,5.65
2023-06-14T03:38:38.835Z,6.04
2023-06-14T03:41:05.544Z,6.20
2023-06-14T03:43:32.234Z,5.86
2023-06-14T03:45:58.977Z,5.94
2023-06-14T03:48:25.835Z,5.77
2023-06-14T03:50:52.673Z,5.95
2023-06-14T03:53:19.379Z,5.66
2023-06-14T03:58:16.632Z,5.88
2023-06-14T04:00:43.330Z,6.03
2023-06-14T04:03:10.188Z,5.81
2023-06-14T04:05:37.031Z,5.91
2023-06-14T04:08:03.905Z,5.80
2023-06-14T04:10:30.592Z,5.91
2023-06-14T04:12:57.306Z,5.93
2023-06-14T04:15:24.343Z,5.94
2023-06-14T04:17:51.420Z,5.85
2023-06-14T04:20:18.232Z,6.02
2023-06-14T04:22:45.014Z,6.00
2023-06-14T04:25:11.734Z,5.64
2023-06-14T04:27:38.718Z,5.91
2023-06-14T04:30:06.095Z,6.05
2023-06-14T04:32:32.861Z,5.98
2023-06-14T04:34:59.663Z,6.02
2023-06-14T04:37:26.537Z,5.71
2023-06-14T04:39:53.295Z,5.96
2023-06-14T04:42:20.017Z,6.01
2023-06-14T04:44:46.721Z,5.70
2023-06-14T04:47:14.552Z,5.96
2023-06-14T04:49:41.332Z,5.82
2023-06-14T04:52:08.247Z,5.83
2023-06-14T04:54:35.079Z,5.80
2023-06-14T04:57:01.830Z,6.43
2023-06-14T04:59:31.313Z,5.90
2023-06-14T05:01:58.151Z,6.13
2023-06-14T05:04:25.995Z,5.80
2023-06-14T05:06:52.669Z,5.71
2023-06-14T05:09:19.426Z,6.05
2023-06-14T05:11:46.149Z,6.05
2023-06-14T05:14:13.311Z,5.68
2023-06-14T05:16:41.149Z,5.74
2023-06-14T05:19:08.356Z,6.02
2023-06-14T05:21:40.522Z,5.91
2023-06-14T05:24:09.182Z,5.98
2023-06-14T05:26:36.027Z,6.01
2023-06-14T05:29:05.041Z,5.90
2023-06-14T05:31:31.848Z,6.05
2023-06-14T05:33:58.621Z,5.74
2023-06-14T05:36:25.449Z,5.89
2023-06-14T05:38:52.489Z,5.75
2023-06-14T05:41:19.163Z,6.14
2023-06-14T05:43:45.851Z,5.82
2023-06-14T05:46:12.540Z,5.89
2023-06-14T05:48:39.234Z,5.63
2023-06-14T05:51:05.923Z,5.57
2023-06-14T05:53:32.650Z,5.77
2023-06-14T05:55:59.368Z,5.79
2023-06-14T05:58:26.186Z,5.84
2023-06-14T06:00:53.133Z,5.63
2023-06-14T06:03:20.144Z,5.73
2023-06-14T06:05:47.026Z,5.70
2023-06-14T06:08:13.818Z,5.72
2023-06-14T06:10:40.564Z,5.80
2023-06-14T06:13:07.805Z,5.86
2023-06-14T06:15:36.582Z,5.97
2023-06-14T06:18:03.455Z,5.81
2023-06-14T06:20:31.114Z,5.88
2023-06-14T06:22:58.674Z,5.92
2023-06-14T06:25:26.150Z,5.86
2023-06-14T06:27:56.385Z,5.94
2023-06-14T06:30:23.494Z,5.66
2023-06-14T06:32:50.246Z,6.25
2023-06-14T06:35:17.218Z,5.72
2023-06-14T06:37:44.623Z,5.54
2023-06-14T06:40:11.566Z,5.90
2023-06-14T06:42:38.336Z,5.76
2023-06-14T06:45:06.845Z,5.50
2023-06-14T06:47:33.572Z,5.57
2023-06-14T06:50:00.283Z,5.41
2023-06-14T06:52:26.990Z,5.42
2023-06-14T06:54:53.739Z,5.41
2023-06-14T06:57:20.504Z,5.71
2023-06-14T06:59:47.211Z,5.53
2023-06-14T07:02:14.097Z,5.64
2023-06-14T07:04:40.826Z,5.23
2023-06-14T07:07:07.653Z,5.06
2023-06-14T07:09:34.350Z,5.27
2023-06-14T07:12:01.057Z,5.37
2023-06-14T07:14:27.970Z,4.93
2023-06-14T07:16:55.068Z,5.23
2023-06-14T07:19:22.146Z,5.05
2023-06-14T07:21:49.519Z,5.35
2023-06-14T07:24:16.606Z,5.46
2023-06-14T07:26:43.613Z,5.39
2023-06-14T07:29:10.514Z,5.67
2023-06-14T07:31:37.232Z,5.26
2023-06-14T07:34:04.169Z,5.50
2023-06-14T07:36:33.932Z,5.58
2023-06-14T07:39:00.729Z,5.32
2023-06-14T07:41:27.453Z,5.60
2023-06-14T07:43:54.162Z,5.55
2023-06-14T07:46:20.999Z,5.46
2023-06-14T07:48:47.816Z,5.37
2023-06-14T07:51:17.191Z,5.55
2023-06-14T07:53:43.893Z,5.27
2023-06-14T07:56:10.603Z,5.41
2023-06-14T07:58:37.327Z,5.33
2023-06-14T08:01:04.042Z,5.41
2023-06-14T08:03:30.963Z,5.34
2023-06-14T08:05:57.931Z,5.27
2023-06-14T08:08:24.783Z,5.29
2023-06-14T08:10:51.541Z,5.40
2023-06-14T08:13:18.445Z,5.39
2023-06-14T08:15:45.299Z,5.23
2023-06-14T08:18:12.143Z,5.25
2023-06-14T08:20:38.868Z,5.21
2023-06-14T08:23:05.669Z,5.31
2023-06-14T08:25:32.462Z,5.32
2023-06-14T08:28:00.312Z,5.29
2023-06-14T08:30:27.232Z,5.48
2023-06-14T08:33:06.040Z,5.15
2023-06-14T08:35:40.626Z,5.03
2023-06-14T08:38:07.364Z,5.28
2023-06-14T08:40:38.551Z,5.61
2023-06-14T08:43:05.401Z,5.64
2023-06-14T08:45:32.773Z,6.14
2023-06-14T08:48:01.439Z,5.86
2023-06-14T08:50:29.564Z,5.83
2023-06-14T08:53:02.123Z,5.57
2023-06-14T08:55:31.381Z,6.07
2023-06-14T08:58:00.044Z,6.35
2023-06-14T09:00:28.890Z,6.28
2023-06-14T09:02:55.960Z,6.68
2023-06-14T09:05:24.727Z,6.06
2023-06-14T09:07:51.759Z,5.89
2023-06-14T09:10:18.604Z,6.08
2023-06-14T09:12:45.389Z,6.24
2023-06-14T09:15:12.226Z,6.02
2023-06-14T09:17:40.060Z,5.78
2023-06-14T09:20:08.814Z,6.27
2023-06-14T09:22:35.866Z,6.36
2023-06-14T09:25:03.438Z,6.21
2023-06-14T09:27:30.743Z,6.28
2023-06-14T09:29:57.809Z,6.24
2023-06-14T09:32:26.379Z,6.38
2023-06-14T09:34:53.170Z,6.00
2023-06-14T09:37:30.700Z,6.31
2023-06-14T09:39:58.777Z,6.25
2023-06-14T09:42:27.103Z,6.06
2023-06-14T09:45:59.373Z,5.85
2023-06-14T09:48:26.476Z,5.99
2023-06-14T09:50:59.194Z,5.91
2023-06-14T09:53:28.936Z,5.96
2023-06-14T09:55:58.399Z,5.77
2023-06-14T09:58:28.794Z,5.74
2023-06-14T10:00:55.772Z,5.68
2023-06-14T10:03:31.972Z,6.21
2023-06-14T10:06:09.151Z,5.69
2023-06-14T10:08:38.906Z,6.43
2023-06-14T10:11:05.626Z,6.73
2023-06-14T10:13:34.192Z,7.03
2023-06-14T10:16:19.839Z,6.86
2023-06-14T10:19:14.774Z,6.33
2023-06-14T10:21:50.148Z,6.32
2023-06-14T10:24:24.908Z,6.39
2023-06-14T10:26:56.754Z,6.66
2023-06-14T10:29:25.243Z,6.67
2023-06-14T10:31:57.854Z,6.59
2023-06-14T10:34:28.598Z,6.43
2023-06-14T10:37:12.842Z,7.08
2023-06-14T10:39:42.503Z,6.79
2023-06-14T10:42:09.589Z,6.62
2023-06-14T10:44:55.426Z,6.48
2023-06-14T10:47:29.589Z,6.68
2023-06-14T10:50:04.193Z,6.76
2023-06-14T10:52:35.220Z,6.72
2023-06-14T10:55:12.622Z,6.63
2023-06-14T10:57:51.638Z,6.90
2023-06-14T11:00:36.545Z,6.38
2023-06-14T11:03:31.674Z,6.36
2023-06-14T11:06:01.839Z,6.48
2023-06-14T11:09:14.130Z,6.45
2023-06-14T11:11:43.735Z,6.98
2023-06-14T11:14:11.421Z,6.51
2023-06-14T11:16:38.198Z,6.34
2023-06-14T11:19:05.160Z,6.52
2023-06-14T11:21:34.411Z,6.52
2023-06-14T11:24:01.421Z,6.79
2023-06-14T11:26:32.774Z,6.82
2023-06-14T11:29:01.009Z,6.40
2023-06-14T11:31:29.479Z,6.66
2023-06-14T11:33:58.017Z,6.32
2023-06-14T11:36:28.511Z,6.47
2023-06-14T11:39:03.544Z,6.20
2023-06-14T11:41:42.344Z,5.71
2023-06-14T11:44:10.274Z,5.76
2023-06-14T11:46:37.176Z,5.97
2023-06-14T11:49:05.266Z,5.85
2023-06-14T11:51:34.762Z,5.83
2023-06-14T11:54:06.580Z,6.10
2023-06-14T11:56:33.917Z,5.99
2023-06-14T11:59:01.249Z,6.32
2023-06-14T12:01:28.308Z,6.18
2023-06-14T12:03:56.063Z,6.15
2023-06-14T12:06:30.918Z,6.12
2023-06-14T12:08:58.071Z,6.31
2023-06-14T12:11:29.115Z,6.39
2023-06-14T12:13:57.939Z,6.05
2023-06-14T12:16:32.293Z,6.43
2023-06-14T12:19:01.948Z,6.29
2023-06-14T12:21:28.673Z,6.40
2023-06-14T12:23:55.870Z,6.15
2023-06-14T12:26:22.640Z,6.14
2023-06-14T12:28:49.483Z,6.27
2023-06-14T12:31:17.124Z,6.03
2023-06-14T12:33:44.608Z,6.00
2023-06-14T12:36:12.071Z,6.15
2023-06-14T12:38:38.858Z,6.06
2023-06-14T12:41:05.815Z,5.84
2023-06-14T12:43:32.678Z,6.21
2023-06-14T12:45:59.500Z,6.19
2023-06-14T12:48:26.703Z,5.87
2023-06-14T12:50:53.630Z,6.42
2023-06-14T12:53:20.349Z,6.30
2023-06-14T12:55:47.122Z,6.02
2023-06-14T12:58:13.820Z,6.07
2023-06-14T13:00:41.138Z,6.19
2023-06-14T13:03:07.965Z,6.03
2023-06-14T13:05:34.788Z,6.01
2023-06-14T13:08:01.875Z,6.21
2023-06-14T13:10:30.546Z,6.19
2023-06-14T13:12:57.287Z,6.31
2023-06-14T13:15:26.384Z,6.22
2023-06-14T13:17:53.263Z,6.04
2023-06-14T13:20:21.062Z,6.00
2023-06-14T13:22:48.170Z,6.21
2023-06-14T13:25:14.885Z,6.20
2023-06-14T13:27:41.591Z,5.84
2023-06-14T13:30:08.689Z,5.83
2023-06-14T13:32:35.453Z,5.88
2023-06-14T13:35:02.246Z,5.84
2023-06-14T13:37:29.132Z,5.67
2023-06-14T13:39:55.908Z,5.76
2023-06-14T13:42:22.599Z,5.73
2023-06-14T13:44:49.338Z,5.85
2023-06-14T13:47:16.004Z,5.52
2023-06-14T13:49:42.716Z,5.40
2023-06-14T13:52:09.497Z,5.57
2023-06-14T13:54:36.217Z,5.87
2023-06-14T13:57:02.925Z,5.70
2023-06-14T13:59:29.613Z,5.81
2023-06-14T14:01:56.296Z,5.91
2023-06-14T14:04:23.102Z,6.15
2023-06-14T14:06:49.835Z,6.20
2023-06-14T14:09:16.561Z,6.15
2023-06-14T14:11:43.309Z,5.98
2023-06-14T14:14:09.997Z,5.17
2023-06-14T14:16:36.877Z,5.10
2023-06-14T14:19:03.725Z,4.87
2023-06-14T14:21:31.234Z,4.76
2023-06-14T14:23:57.976Z,5.32
2023-06-14T14:26:24.870Z,5.51
2023-06-14T14:28:52.338Z,5.75
2023-06-14T14:31:19.876Z,5.18
2023-06-14T14:33:46.690Z,4.72
2023-06-14T14:36:13.412Z,4.88
2023-06-14T14:38:40.083Z,4.02
2023-06-14T14:41:06.798Z,4.29
2023-06-14T14:43:33.511Z,4.21
2023-06-14T14:46:00.227Z,4.28
2023-06-14T14:48:26.924Z,3.64
2023-06-14T14:50:53.665Z,3.29
2023-06-14T14:53:20.321Z,3.13
2023-06-14T14:55:47.049Z,3.31
2023-06-14T14:58:14.748Z,3.59
2023-06-14T15:00:41.411Z,3.32
2023-06-14T15:03:08.179Z,3.48
2023-06-14T15:05:34.941Z,3.41
2023-06-14T15:08:01.638Z,3.84
2023-06-14T15:10:28.316Z,3.62
2023-06-14T15:12:55.025Z,3.34
2023-06-14T15:15:23.351Z,3.65
2023-06-14T15:17:50.089Z,3.08
2023-06-14T15:20:17.050Z,3.34
2023-06-14T15:22:43.946Z,3.37
2023-06-14T15:25:10.769Z,3.29
2023-06-14T15:27:37.516Z,3.44
2023-06-14T15:30:04.547Z,3.55
2023-06-14T15:32:31.268Z,3.36
2023-06-14T15:34:57.950Z,3.27
2023-06-14T15:37:24.662Z,3.47
2023-06-14T15:39:51.356Z,3.63
2023-06-14T15:42:18.058Z,3.57
2023-06-14T15:44:44.752Z,3.95
2023-06-14T15:47:11.434Z,3.73
2023-06-14T15:49:38.108Z,3.80
2023-06-14T15:52:05.183Z,3.74
2023-06-14T15:54:34.070Z,3.81
2023-06-14T15:57:00.743Z,3.71
2023-06-14T15:59:27.474Z,3.79
2023-06-14T16:01:54.212Z,3.82
2023-06-14T16:04:21.294Z,4.01
2023-06-14T16:06:47.988Z,3.94
2023-06-14T16:09:14.648Z,3.82
2023-06-14T16:11:42.078Z,3.67
2023-06-14T16:14:08.887Z,3.70
2023-06-14T16:16:35.720Z,3.99
2023-06-14T16:19:02.444Z,4.13
2023-06-14T16:21:29.152Z,3.97
2023-06-14T16:23:55.897Z,4.11
2023-06-14T16:26:22.603Z,4.17
2023-06-14T16:28:49.270Z,4.35
2023-06-14T16:31:15.959Z,4.36
2023-06-14T16:33:42.730Z,4.49
2023-06-14T16:36:13.233Z,4.53
2023-06-14T16:38:40.205Z,4.26
2023-06-14T16:41:06.873Z,4.51
2023-06-14T16:43:33.561Z,4.52
2023-06-14T16:46:02.816Z,4.25
2023-06-14T16:48:29.601Z,4.48
2023-06-14T16:50:56.459Z,4.30
2023-06-14T16:53:23.142Z,4.48
2023-06-14T16:55:49.896Z,4.80
2023-06-14T16:58:16.775Z,4.60
2023-06-14T17:00:43.479Z,4.91
2023-06-14T17:03:11.378Z,4.83
2023-06-14T17:05:54.230Z,4.48
2023-06-14T17:08:20.973Z,4.56
2023-06-14T17:10:47.675Z,4.65
2023-06-14T17:13:17.459Z,4.69
2023-06-14T17:15:44.458Z,4.48
2023-06-14T17:18:11.312Z,4.74
2023-06-14T17:20:38.059Z,4.50
2023-06-14T17:23:04.922Z,4.47
2023-06-14T17:25:31.822Z,4.79
2023-06-14T17:27:58.574Z,4.51
2023-06-14T17:30:25.471Z,4.88
2023-06-14T17:32:54.506Z,4.78
2023-06-14T17:35:21.329Z,5.33
2023-06-14T17:37:50.304Z,5.32
2023-06-14T17:40:17.604Z,5.01
2023-06-14T17:42:44.661Z,4.89
2023-06-14T17:45:11.669Z,4.92
2023-06-14T17:47:40.886Z,5.02
2023-06-14T17:50:08.564Z,4.93
2023-06-14T17:52:35.392Z,5.14
2023-06-14T17:55:03.627Z,5.27
2023-06-14T17:57:30.334Z,5.02
2023-06-14T17:59:57.354Z,5.16
2023-06-14T18:02:24.112Z,5.21
2023-06-14T18:04:50.880Z,5.19
2023-06-14T18:07:17.607Z,5.48
2023-06-14T18:09:44.352Z,5.67
2023-06-14T18:12:11.073Z,5.46
2023-06-14T18:14:38.043Z,5.56
2023-06-14T18:17:05.069Z,5.43
2023-06-14T18:19:31.830Z,5.75
2023-06-14T18:21:59.978Z,5.64
2023-06-14T18:24:26.706Z,5.45
2023-06-14T18:26:53.481Z,5.02
2023-06-14T18:29:20.196Z,5.55
2023-06-14T18:31:47.076Z,5.32
2023-06-14T18:34:13.884Z,5.57
2023-06-14T18:36:40.666Z,5.61
2023-06-14T18:39:07.469Z,5.97
2023-06-14T18:41:35.501Z,5.64
2023-06-14T18:44:02.307Z,5.72
2023-06-14T18:46:29.056Z,5.58
2023-06-14T18:48:55.793Z,5.79
2023-06-14T18:51:22.504Z,5.54
2023-06-14T18:53:49.265Z,5.46
2023-06-14T18:56:15.992Z,5.82
2023-06-14T18:58:42.723Z,5.73
2023-06-14T19:01:09.452Z,5.66
2023-06-14T19:03:36.397Z,5.74
2023-06-14T19:06:03.211Z,5.84
2023-06-14T19:08:29.951Z,5.80
2023-06-14T19:10:56.654Z,6.12
2023-06-14T19:13:24.057Z,5.97
2023-06-14T19:15:50.757Z,6.20
2023-06-14T19:18:17.558Z,6.33
2023-06-14T19:20:44.329Z,6.51
2023-06-14T19:23:11.162Z,6.56
2023-06-14T19:25:37.836Z,6.33
2023-06-14T19:28:04.707Z,6.47
2023-06-14T19:30:31.451Z,6.89
2023-06-14T19:32:58.255Z,7.12
2023-06-14T19:35:25.030Z,7.15
2023-06-14T19:37:51.960Z,7.64
2023-06-14T19:40:20.217Z,7.32
2023-06-14T19:42:47.344Z,7.56
2023-06-14T19:45:14.221Z,7.38
2023-06-14T19:47:43.800Z,7.49
2023-06-14T19:50:10.795Z,7.71
2023-06-14T19:52:37.503Z,7.84
2023-06-14T19:55:04.600Z,7.54
2023-06-14T19:57:31.320Z,7.36
2023-06-14T19:59:57.981Z,7.76
2023-06-14T20:02:24.697Z,7.50
2023-06-14T20:04:51.478Z,7.58
2023-06-14T20:07:18.149Z,7.65
2023-06-14T20:09:44.855Z,7.87
2023-06-14T20:12:11.641Z,7.62
2023-06-14T20:14:39.049Z,7.76
2023-06-14T20:17:06.057Z,7.70
2023-06-14T20:19:32.740Z,7.73
2023-06-14T20:21:59.511Z,7.84
2023-06-14T20:24:29.335Z,7.91
2023-06-14T20:26:56.203Z,8.04
2023-06-14T20:29:22.883Z,7.94
2023-06-14T20:31:49.709Z,8.07
2023-06-14T20:34:16.449Z,7.52
2023-06-14T20:36:43.165Z,7.82
2023-06-14T20:39:09.942Z,7.99
2023-06-14T20:41:37.329Z,8.09
2023-06-14T20:44:04.084Z,8.01
2023-06-14T20:46:30.781Z,8.01
2023-06-14T20:48:57.532Z,8.27
2023-06-14T20:51:24.498Z,7.84
2023-06-14T20:53:51.348Z,8.21
2023-06-14T20:56:18.120Z,7.78
2023-06-14T20:58:44.833Z,8.11
2023-06-14T21:01:11.568Z,8.36
2023-06-14T21:03:38.373Z,8.19
2023-06-14T21:06:05.095Z,8.05
2023-06-14T21:08:31.812Z,8.12
2023-06-14T21:10:58.498Z,7.98
2023-06-14T21:13:25.198Z,8.31
2023-06-14T21:15:51.915Z,8.24
2023-06-14T21:18:18.848Z,8.40
2023-06-14T21:20:45.729Z,8.36
2023-06-14T21:23:12.420Z,8.53
2023-06-14T21:25:39.278Z,8.66
2023-06-14T21:28:06.089Z,8.31
2023-06-14T21:30:34.137Z,8.66
2023-06-14T21:33:01.337Z,8.49
2023-06-14T21:35:28.072Z,8.52
2023-06-14T21:37:54.842Z,8.53
2023-06-14T21:40:21.548Z,8.24
2023-06-14T21:42:48.316Z,8.44
2023-06-14T21:45:15.025Z,8.32
2023-06-14T21:47:41.736Z,8.57
2023-06-14T21:50:09.050Z,8.42
2023-06-14T21:52:35.756Z,8.18
2023-06-14T21:55:02.453Z,8.40
2023-06-14T21:57:29.251Z,8.38
2023-06-14T21:59:56.041Z,8.20
2023-06-14T22:02:23.167Z,8.56
2023-06-14T22:04:50.081Z,8.33
2023-06-14T22:07:17.960Z,8.18
2023-06-14T22:09:44.687Z,8.53
2023-06-14T22:12:11.439Z,8.51
2023-06-14T22:14:38.113Z,8.52
2023-06-14T22:17:05.090Z,8.47
2023-06-14T22:19:31.809Z,8.45
2023-06-14T22:21:58.508Z,8.47
2023-06-14T22:24:25.317Z,8.82
2023-06-14T22:26:51.982Z,8.92
2023-06-14T22:29:18.727Z,8.55
2023-06-14T22:31:45.457Z,8.89
2023-06-14T22:34:12.303Z,8.65
2023-06-14T22:36:39.005Z,8.48
2023-06-14T22:39:06.100Z,8.85
2023-06-14T22:41:32.943Z,8.81
2023-06-14T22:44:00.005Z,8.85
2023-06-14T22:46:26.773Z,8.66
2023-06-14T22:48:53.508Z,8.60
2023-06-14T22:51:22.202Z,8.74
2023-06-14T22:53:49.418Z,8.58
2023-06-14T22:56:18.363Z,8.64
2023-06-14T22:58:45.905Z,8.94
2023-06-14T23:01:16.088Z,8.47
2023-06-14T23:03:43.798Z,9.01
2023-06-14T23:06:12.115Z,8.79
2023-06-14T23:08:38.794Z,8.88
2023-06-14T23:11:05.521Z,9.12
2023-06-14T23:13:34.521Z,9.19
2023-06-14T23:16:01.207Z,8.60
2023-06-14T23:18:27.921Z,8.72
2023-06-14T23:20:54.597Z,8.59
2023-06-14T23:23:21.322Z,8.85
2023-06-14T23:25:48.744Z,8.43
2023-06-14T23:28:15.437Z,8.94
2023-06-14T23:30:42.132Z,8.26
2023-06-14T23:33:08.977Z,8.67
2023-06-14T23:35:35.683Z,8.62
2023-06-14T23:38:02.376Z,8.59
2023-06-14T23:40:29.039Z,8.86
2023-06-14T23:42:56.458Z,8.67
2023-06-14T23:45:24.405Z,8.79
2023-06-14T23:47:51.390Z,8.53
2023-06-14T23:50:18.223Z,8.34
2023-06-14T23:52:44.934Z,8.32
2023-06-14T23:55:11.930Z,9.27
2023-06-14T23:57:38.579Z,8.94
